Disclaimer

Please do not use the information listed here in-flight or in-navigation, as they are not provided to us by the airports but are provided by volunteers, so they might be outdated.

Search


Regions


Airport information page

Radio informations:
Tower (TWR) - 118.1 MHz

Airport informations:
Latitude: 07° 04' 07.97" N
Longitude: 070° 44' 12.93" W
Elevation: 420 feet - 128 meters
Operating hours: Remarks
Operating agency: Civil government, landing fees and diplomatic clearance may be required
Timezone: UTC-5
Fuel: 100/130 MIL Spec, low lead, aviation gasoline (BLUE)

Runway information:
11/29 - 6890 x 98 feet< - >2100 x 30 meters

Recent METARs:
SKUC 190100Z 00000KT 9999 BKN015 26/25 A2985
SKUC 190200Z 00000KT 9999 BKN017 25/25 A2988
SKUC 190200Z 00000KT 9999 BKN017 25/25 A2988

Airport on the map: